MDT,Max TemperatureF,Mean TemperatureF,Min TemperatureF,Max Dew PointF,MeanDew PointF,Min DewpointF,Max Humidity, Mean Humidity, Min Humidity, Max Sea Level PressureIn, Mean Sea Level PressureIn, Min Sea Level PressureIn, Max VisibilityMiles, Mean VisibilityMiles, Min VisibilityMiles, Max Wind SpeedMPH, Mean Wind SpeedMPH, Max Gust SpeedMPH,PrecipitationIn, CloudCover, Events, WindDirDegrees
2011-10-1,84,66,47,48,39,35,72,47,22,29.97,29.92,29.81,10,10,5,35,4,52,T,1,Rain-Thunderstorm,260
2011-10-2,75,59,43,46,43,39,86,60,33,30.04,29.96,29.90,10,10,10,13,3,16,0.00,1,,278
2011-10-3,85,64,42,40,37,31,82,49,15,30.06,29.91,29.73,10,10,10,24,7,43,0.00,0,,197
2011-10-4,75,62,49,49,43,37,93,62,31,29.74,29.67,29.56,10,10,8,26,11,37,0.17,4,Rain,184
2011-10-5,62,55,47,52,49,46,100,84,67,29.69,29.56,29.46,10,10,9,14,3,17,0.03,6,Rain,303
2011-10-6,52,48,44,49,43,39,93,81,68,29.76,29.62,29.46,10,10,5,18,8,21,0.03,8,Rain,317
2011-10-7,49,47,44,44,39,36,100,81,61,30.10,29.84,29.68,10,10,5,26,11,36,0.10,8,Rain,274
2011-10-8,55,45,35,41,38,33,96,73,50,30.33,30.24,30.12,10,10,10,8,2,31,0.00,6,,237
2011-10-9,62,47,31,37,32,26,92,59,25,30.25,30.10,29.96,10,10,10,15,4,23,0.00,0,,248
2011-10-10,62,48,34,39,35,30,96,66,36,29.94,29.82,29.71,10,10,10,18,3,25,0.00,3,,252
2011-10-11,61,53,45,39,35,29,83,61,39,30.01,29.80,29.69,10,10,10,33,11,45,0.00,3,,247
2011-10-12,59,50,41,33,29,25,62,46,30,30.17,30.10,30.03,10,10,10,24,11,33,0.00,3,,260
2011-10-13,58,49,39,32,29,25,70,50,30,30.17,30.12,30.03,10,10,10,18,8,23,0.00,3,,256
2011-10-14,53,46,38,39,36,29,92,73,53,30.16,30.06,29.92,10,10,10,6,1,8,0.01,6,,308
2011-10-15,48,42,36,41,39,36,100,86,71,30.19,30.04,29.88,10,9,5,10,3,13,0.12,5,Rain,346
2011-10-16,48,41,34,44,37,32,100,81,62,30.22,30.10,29.98,10,9,4,17,4,22,0.05,5,Rain,268
2011-10-17,56,44,31,34,27,18,89,57,24,30.45,30.37,30.18,10,10,10,18,7,24,0.00,1,,280
2011-10-18,58,43,28,31,29,27,85,59,33,30.57,30.42,30.29,10,10,10,12,3,14,0.00,0,,153
2011-10-19,51,39,27,36,31,26,89,68,46,30.25,30.10,30.01,10,10,8,8,1,10,0.00,1,,250
2011-10-20,64,48,31,38,35,30,92,64,36,30.15,30.08,30.00,10,10,10,14,3,17,0.00,1,,278
2011-10-21,56,50,43,43,39,37,96,75,54,30.21,30.17,30.12,10,10,7,17,5,21,0.02,5,Rain,274
2011-10-22,64,54,44,40,35,29,63,46,29,30.22,30.12,30.01,10,10,10,36,11,48,T,4,,253
2011-10-23,63,52,41,42,37,34,71,55,39,30.12,30.06,30.02,10,10,10,22,8,30,T,2,Rain,259
2011-10-24,52,42,32,42,31,21,92,62,32,30.23,30.04,29.96,10,10,9,23,8,29,0.01,5,Rain,283
2011-10-25,44,37,29,29,23,19,75,57,39,30.47,30.35,30.15,10,10,9,16,5,20,0.01,4,,286
2011-10-26,49,34,19,25,17,8,92,54,21,30.49,30.31,30.14,10,10,8,18,4,24,0.00,1,,235
2011-10-27,49,41,32,22,17,12,51,46,40,30.30,30.19,30.04,10,10,10,25,9,32,0.00,4,,265
2011-10-28,46,35,23,22,20,18,81,59,37,30.38,30.22,29.96,10,10,10,9,1,9,0.00,1,,284
2011-10-29,51,42,33,34,24,19,65,48,31,30.25,30.08,29.83,10,10,10,36,13,47,T,3,Rain,274
2011-10-30,61,45,28,33,27,23,72,51,30,30.31,30.16,29.98,10,10,10,12,4,16,0.00,1,,260
2011-10-31,54,43,32,37,27,15,71,51,31,30.21,30.02,29.89,10,10,10,26,10,36,0.00,4,,269